createdAt,value
2023-04-19T00:00:08.392Z,7.38
2023-04-19T00:02:36.134Z,6.50
2023-04-19T00:05:03.210Z,6.60
2023-04-19T00:07:30.150Z,5.75
2023-04-19T00:09:57.028Z,5.75
2023-04-19T00:12:23.936Z,6.57
2023-04-19T00:14:50.817Z,5.75
2023-04-19T00:17:18.028Z,6.40
2023-04-19T00:19:44.863Z,6.18
2023-04-19T00:22:11.824Z,6.35
2023-04-19T00:24:38.692Z,5.93
2023-04-19T00:27:05.692Z,6.15
2023-04-19T00:29:32.550Z,6.30
2023-04-19T00:31:59.349Z,6.53
2023-04-19T00:34:26.220Z,9.48
2023-04-19T00:36:53.074Z,6.57
2023-04-19T00:39:19.956Z,6.78
2023-04-19T00:41:46.788Z,6.38
2023-04-19T00:44:16.420Z,6.93
2023-04-19T00:46:44.245Z,6.35
2023-04-19T00:49:11.220Z,6.65
2023-04-19T00:51:38.774Z,8.40
2023-04-19T00:54:07.637Z,7.35
2023-04-19T00:56:35.803Z,6.25
2023-04-19T00:59:02.890Z,7.70
2023-04-19T01:01:30.118Z,7.07
2023-04-19T01:03:57.473Z,7.63
2023-04-19T01:06:24.462Z,10.25
2023-04-19T01:08:51.301Z,10.88
2023-04-19T01:11:18.130Z,6.75
2023-04-19T01:13:44.924Z,6.82
2023-04-19T01:16:12.008Z,7.55
2023-04-19T01:18:40.630Z,6.75
2023-04-19T01:21:09.061Z,7.38
2023-04-19T01:23:36.875Z,6.80
2023-04-19T01:26:03.643Z,7.82
2023-04-19T01:28:30.498Z,7.50
2023-04-19T01:30:57.358Z,7.72
2023-04-19T01:33:43.168Z,7.00
2023-04-19T01:36:10.100Z,7.50
2023-04-19T01:38:36.992Z,8.45
2023-04-19T01:41:03.835Z,6.68
2023-04-19T01:43:30.619Z,6.47
2023-04-19T01:45:57.406Z,6.75
2023-04-19T01:48:24.173Z,7.00
2023-04-19T01:50:50.944Z,7.70
2023-04-19T01:53:17.760Z,7.75
2023-04-19T01:55:44.538Z,8.32
2023-04-19T01:58:11.340Z,6.97
2023-04-19T02:00:38.173Z,7.70
2023-04-19T02:03:05.221Z,7.50
2023-04-19T02:05:32.169Z,7.13
2023-04-19T02:07:58.996Z,8.05
2023-04-19T02:10:25.970Z,8.50
2023-04-19T02:12:52.833Z,12.48
2023-04-19T02:15:19.668Z,8.10
2023-04-19T02:17:46.791Z,8.32
2023-04-19T02:20:13.655Z,7.88
2023-04-19T02:22:40.626Z,8.48
2023-04-19T02:25:07.952Z,7.75
2023-04-19T02:27:34.731Z,8.80
2023-04-19T02:30:02.033Z,9.00
2023-04-19T02:32:28.930Z,8.40
2023-04-19T02:34:55.916Z,8.65
2023-04-19T02:37:22.726Z,8.40
2023-04-19T02:39:49.598Z,8.38
2023-04-19T02:42:16.408Z,9.23
2023-04-19T02:44:43.236Z,10.55
2023-04-19T02:47:10.084Z,10.52
2023-04-19T02:49:41.284Z,10.57
2023-04-19T02:52:08.766Z,9.13
2023-04-19T02:54:35.894Z,8.63
2023-04-19T02:57:02.756Z,9.98
2023-04-19T02:59:29.540Z,10.05
2023-04-19T03:01:56.424Z,9.73
2023-04-19T03:04:23.657Z,10.18
2023-04-19T03:06:51.062Z,10.70
2023-04-19T03:09:17.828Z,10.20
2023-04-19T03:11:44.631Z,9.93
2023-04-19T03:14:11.472Z,9.98
2023-04-19T03:16:38.303Z,10.98
2023-04-19T03:19:05.132Z,11.00
2023-04-19T03:21:31.979Z,10.23
2023-04-19T03:23:58.766Z,10.27
2023-04-19T03:26:25.731Z,11.32
2023-04-19T03:28:53.328Z,13.82
2023-04-19T03:31:20.292Z,12.95
2023-04-19T03:33:50.822Z,12.95
2023-04-19T03:36:17.694Z,15.68
2023-04-19T03:38:44.597Z,11.93
2023-04-19T03:41:26.771Z,14.45
2023-04-19T03:43:53.622Z,15.35
2023-04-19T03:46:20.540Z,14.38
2023-04-19T03:48:48.372Z,13.98
2023-04-19T03:51:16.032Z,15.68
2023-04-19T03:53:43.084Z,11.75
2023-04-19T03:56:10.003Z,14.48
2023-04-19T03:58:37.512Z,11.45
2023-04-19T04:01:04.422Z,13.60
2023-04-19T04:03:31.430Z,16.15
2023-04-19T04:05:58.625Z,14.57
2023-04-19T04:08:25.474Z,15.85
2023-04-19T04:10:55.159Z,17.45
2023-04-19T04:13:22.011Z,13.70
2023-04-19T04:15:49.100Z,13.30
2023-04-19T04:18:16.304Z,16.02
2023-04-19T04:20:44.486Z,13.32
2023-04-19T04:23:11.412Z,15.85
2023-04-19T04:25:39.150Z,18.35
2023-04-19T04:28:06.950Z,15.38
2023-04-19T04:30:34.322Z,15.88
2023-04-19T04:33:01.277Z,15.65
2023-04-19T04:35:29.919Z,16.90
2023-04-19T04:37:56.795Z,18.02
2023-04-19T04:40:23.764Z,18.35
2023-04-19T04:42:52.868Z,15.65
2023-04-19T04:45:19.983Z,15.10
2023-04-19T04:47:46.864Z,15.52
2023-04-19T04:50:13.737Z,16.20
2023-04-19T04:52:40.714Z,14.48
2023-04-19T04:55:08.121Z,18.90
2023-04-19T04:57:34.938Z,17.27
2023-04-19T05:00:01.986Z,17.38
2023-04-19T05:02:28.875Z,18.90
2023-04-19T05:04:55.784Z,16.33
2023-04-19T05:07:22.646Z,16.95
2023-04-19T05:09:49.445Z,18.33
2023-04-19T05:12:16.428Z,19.00
2023-04-19T05:14:43.195Z,17.92
2023-04-19T05:17:10.207Z,19.20
2023-04-19T05:19:37.029Z,17.75
2023-04-19T05:22:03.878Z,18.35
2023-04-19T05:24:30.668Z,16.77
2023-04-19T05:26:57.482Z,19.65
2023-04-19T05:29:24.315Z,19.00
2023-04-19T05:31:51.932Z,16.25
2023-04-19T05:34:21.830Z,15.88
2023-04-19T05:36:49.058Z,20.08
2023-04-19T05:39:16.976Z,16.92
2023-04-19T05:41:44.182Z,18.50
2023-04-19T05:44:10.975Z,16.38
2023-04-19T05:46:37.851Z,16.20
2023-04-19T05:49:04.735Z,21.27
2023-04-19T05:51:31.930Z,16.20
2023-04-19T05:54:01.045Z,18.02
2023-04-19T05:56:27.900Z,19.23
2023-04-19T05:58:56.269Z,22.42
2023-04-19T06:01:24.210Z,18.08
2023-04-19T06:03:53.421Z,19.52
2023-04-19T06:06:23.792Z,16.50
2023-04-19T06:08:53.306Z,20.95
2023-04-19T06:11:28.850Z,20.92
2023-04-19T06:13:58.669Z,19.33
2023-04-19T06:16:25.590Z,18.15
2023-04-19T06:18:52.594Z,16.98
2023-04-19T06:21:19.414Z,18.35
2023-04-19T06:23:46.210Z,18.23
2023-04-19T06:26:13.050Z,21.15
2023-04-19T06:28:39.902Z,21.45
2023-04-19T06:31:06.863Z,20.70
2023-04-19T06:33:33.775Z,16.58
2023-04-19T06:36:01.906Z,20.33
2023-04-19T06:38:29.710Z,19.25
2023-04-19T06:40:56.574Z,21.17
2023-04-19T06:43:24.758Z,22.05
2023-04-19T06:46:02.025Z,17.40
2023-04-19T06:48:29.180Z,17.60
2023-04-19T06:50:56.323Z,18.13
2023-04-19T06:53:23.677Z,18.63
2023-04-19T06:55:59.109Z,17.50
2023-04-19T06:58:26.127Z,19.20
2023-04-19T07:00:53.447Z,21.42
2023-04-19T07:03:21.499Z,19.75
2023-04-19T07:05:49.098Z,20.98
2023-04-19T07:08:16.407Z,20.35
2023-04-19T07:10:43.970Z,23.70
2023-04-19T07:13:13.757Z,20.33
2023-04-19T07:15:40.755Z,23.25
2023-04-19T07:18:08.223Z,19.38
2023-04-19T07:20:35.237Z,19.40
2023-04-19T07:23:02.051Z,21.33
2023-04-19T07:25:29.004Z,17.48
2023-04-19T07:27:56.589Z,21.92
2023-04-19T07:30:23.503Z,19.98
2023-04-19T07:32:51.846Z,19.02
2023-04-19T07:35:19.552Z,21.42
2023-04-19T07:37:46.521Z,20.90
2023-04-19T07:40:13.777Z,20.50
2023-04-19T07:42:40.726Z,20.85
2023-04-19T07:45:09.080Z,21.45
2023-04-19T07:47:35.993Z,20.95
2023-04-19T07:50:03.473Z,20.30
2023-04-19T07:52:30.376Z,20.83
2023-04-19T07:54:57.597Z,20.80
2023-04-19T07:57:24.425Z,22.70
2023-04-19T07:59:51.247Z,21.77
2023-04-19T08:02:19.203Z,21.25
2023-04-19T08:04:48.550Z,22.67
2023-04-19T08:07:15.917Z,19.52
2023-04-19T08:09:42.812Z,21.05
2023-04-19T08:12:12.648Z,18.90
2023-04-19T08:14:56.189Z,18.48
2023-04-19T08:17:32.601Z,20.10
2023-04-19T08:20:06.729Z,17.83
2023-04-19T08:22:33.574Z,18.80
2023-04-19T08:25:00.372Z,17.60
2023-04-19T08:27:27.225Z,18.60
2023-04-19T08:29:54.007Z,17.42
2023-04-19T08:32:20.997Z,17.08
2023-04-19T08:34:47.839Z,16.88
2023-04-19T08:37:14.640Z,17.05
2023-04-19T08:39:41.555Z,17.45
2023-04-19T08:42:18.248Z,15.35
2023-04-19T08:47:42.126Z,16.80
2023-04-19T08:52:55.025Z,15.18
2023-04-19T08:55:28.091Z,17.77
2023-04-19T08:57:56.590Z,14.20
2023-04-19T09:00:23.745Z,12.07
2023-04-19T09:02:53.361Z,14.15
2023-04-19T09:05:21.194Z,15.10
2023-04-19T09:07:48.522Z,15.05
2023-04-19T09:10:19.897Z,12.77
2023-04-19T09:13:05.648Z,17.13
2023-04-19T09:15:41.889Z,13.07
2023-04-19T09:18:10.826Z,16.70
2023-04-19T09:20:38.384Z,15.63
2023-04-19T09:23:17.390Z,15.45
2023-04-19T09:28:32.200Z,16.33
2023-04-19T09:31:33.369Z,16.13
2023-04-19T09:34:18.836Z,14.63
2023-04-19T09:36:46.879Z,16.60
2023-04-19T09:39:15.173Z,16.45
2023-04-19T09:41:55.017Z,21.75
2023-04-19T09:44:52.965Z,18.83
2023-04-19T09:47:24.439Z,18.85
2023-04-19T09:50:23.613Z,16.17
2023-04-19T09:57:50.176Z,16.23
2023-04-19T10:00:17.386Z,16.95
2023-04-19T10:02:52.291Z,15.65
2023-04-19T10:05:21.590Z,18.42
2023-04-19T10:07:50.343Z,18.90
2023-04-19T10:10:20.958Z,14.35
2023-04-19T10:15:26.831Z,16.30
2023-04-19T10:17:56.727Z,13.85
2023-04-19T10:20:32.700Z,14.77
2023-04-19T10:23:00.755Z,12.20
2023-04-19T10:25:31.247Z,10.80
2023-04-19T10:27:58.374Z,11.52
2023-04-19T10:30:29.117Z,12.88
2023-04-19T10:35:44.887Z,12.65
2023-04-19T10:38:16.190Z,13.68
2023-04-19T10:40:57.792Z,10.15
2023-04-19T10:43:30.007Z,9.60
2023-04-19T10:46:07.874Z,12.02
2023-04-19T10:48:43.885Z,11.07
2023-04-19T10:51:15.992Z,11.90
2023-04-19T10:53:59.344Z,11.63
2023-04-19T10:56:35.641Z,14.32
2023-04-19T10:59:08.134Z,13.25
2023-04-19T11:01:56.038Z,14.68
2023-04-19T11:04:59.351Z,13.70
2023-04-19T11:07:26.546Z,11.88
2023-04-19T11:09:53.525Z,13.40
2023-04-19T11:12:21.983Z,13.02
2023-04-19T11:14:59.892Z,14.57
2023-04-19T11:17:32.384Z,10.90
2023-04-19T11:20:01.625Z,12.75
2023-04-19T11:22:36.447Z,11.40
2023-04-19T11:25:08.964Z,12.93
2023-04-19T11:27:36.392Z,11.30
2023-04-19T11:30:09.687Z,12.75
2023-04-19T11:32:37.450Z,14.63
2023-04-19T11:35:08.941Z,12.73
2023-04-19T11:37:38.177Z,11.98
2023-04-19T11:40:07.423Z,11.07
2023-04-19T11:42:34.486Z,12.05
2023-04-19T11:45:01.632Z,10.27
2023-04-19T11:47:28.899Z,15.95
2023-04-19T11:49:56.576Z,14.77
2023-04-19T11:52:26.388Z,14.32
2023-04-19T11:54:54.248Z,16.23
2023-04-19T11:57:29.980Z,15.25
2023-04-19T12:00:11.883Z,15.18
2023-04-19T12:02:42.234Z,16.25
2023-04-19T12:05:15.487Z,14.90
2023-04-19T12:08:03.070Z,19.65
2023-04-19T12:10:31.731Z,12.60
2023-04-19T12:12:59.386Z,16.40
2023-04-19T12:15:46.909Z,18.13
2023-04-19T12:18:14.361Z,17.42
2023-04-19T12:20:47.315Z,15.13
2023-04-19T12:23:16.048Z,16.02
2023-04-19T12:25:46.184Z,16.98
2023-04-19T12:28:15.152Z,14.63
2023-04-19T12:30:42.844Z,15.07
2023-04-19T12:33:09.909Z,15.20
2023-04-19T12:35:38.510Z,12.85
2023-04-19T12:38:05.414Z,9.35
2023-04-19T12:40:32.623Z,6.45
2023-04-19T12:42:59.468Z,5.68
2023-04-19T12:45:26.850Z,5.53
2023-04-19T12:47:53.922Z,5.20
2023-04-19T12:50:20.883Z,5.00
2023-04-19T12:52:47.812Z,6.97
2023-04-19T12:55:14.692Z,4.97
2023-04-19T12:57:41.684Z,5.20
2023-04-19T13:00:10.967Z,5.75
2023-04-19T13:02:38.835Z,5.55
2023-04-19T13:05:07.269Z,5.28
2023-04-19T13:07:34.182Z,7.47
2023-04-19T13:10:01.057Z,6.78
2023-04-19T13:12:28.672Z,5.05
2023-04-19T13:14:55.573Z,5.20
2023-04-19T13:17:22.441Z,4.88
2023-04-19T13:19:49.378Z,6.22
2023-04-19T13:22:16.212Z,5.07
2023-04-19T13:24:43.011Z,5.25
2023-04-19T13:27:10.035Z,5.43
2023-04-19T13:29:37.348Z,5.18
2023-04-19T13:32:07.585Z,8.02
2023-04-19T13:34:35.291Z,5.35
2023-04-19T13:37:02.164Z,4.93
2023-04-19T13:39:29.117Z,5.72
2023-04-19T13:41:56.001Z,4.93
2023-04-19T13:44:23.012Z,5.82
2023-04-19T13:46:49.952Z,5.30
2023-04-19T13:49:18.336Z,4.07
2023-04-19T13:51:50.056Z,3.97
2023-04-19T13:54:19.857Z,4.68
2023-04-19T13:56:49.827Z,5.60
2023-04-19T13:59:18.302Z,4.95
2023-04-19T14:01:45.135Z,4.50
2023-04-19T14:04:12.074Z,4.75
2023-04-19T14:06:39.204Z,4.35
2023-04-19T14:09:06.784Z,3.80
2023-04-19T14:11:34.532Z,2.88
2023-04-19T14:14:01.405Z,3.88
2023-04-19T14:16:28.304Z,3.75
2023-04-19T14:18:55.302Z,2.55
2023-04-19T14:21:22.171Z,2.55
2023-04-19T14:23:48.958Z,2.40
2023-04-19T14:26:15.930Z,2.88
2023-04-19T14:28:42.766Z,3.78
2023-04-19T14:31:09.666Z,3.28
2023-04-19T14:33:36.532Z,3.05
2023-04-19T14:36:03.701Z,3.22
2023-04-19T14:38:30.753Z,3.55
2023-04-19T14:40:57.711Z,4.05
2023-04-19T14:43:24.587Z,3.25
2023-04-19T14:45:52.518Z,3.47
2023-04-19T14:48:21.856Z,4.47
2023-04-19T14:50:49.362Z,4.45
2023-04-19T14:53:16.375Z,4.60
2023-04-19T14:55:43.247Z,8.65
2023-04-19T14:58:10.185Z,4.43
2023-04-19T15:00:36.960Z,3.65
2023-04-19T15:03:04.023Z,3.05
2023-04-19T15:05:34.892Z,8.48
2023-04-19T15:10:29.051Z,2.78
2023-04-19T15:12:56.067Z,3.35
2023-04-19T15:15:22.920Z,3.60
2023-04-19T15:17:49.843Z,3.47
2023-04-19T15:20:17.027Z,3.08
2023-04-19T15:22:43.842Z,4.20
2023-04-19T15:25:10.670Z,3.42
2023-04-19T15:27:37.580Z,3.22
2023-04-19T15:30:06.156Z,3.00
2023-04-19T15:32:34.306Z,2.83
2023-04-19T15:35:01.290Z,3.00
2023-04-19T15:37:28.131Z,2.75
2023-04-19T15:39:54.956Z,3.17
2023-04-19T15:42:21.927Z,3.33
2023-04-19T15:44:48.828Z,3.80
2023-04-19T15:47:15.797Z,4.03
2023-04-19T15:49:42.750Z,3.95
2023-04-19T15:52:09.614Z,4.43
2023-04-19T15:54:37.669Z,3.72
2023-04-19T15:57:04.530Z,3.92
2023-04-19T15:59:31.660Z,4.32
2023-04-19T16:01:58.797Z,4.65
2023-04-19T16:04:26.064Z,4.10
2023-04-19T16:06:53.081Z,4.65
2023-04-19T16:09:20.269Z,4.75
2023-04-19T16:11:47.141Z,5.20
2023-04-19T16:14:13.977Z,3.40
2023-04-19T16:16:40.821Z,2.97
2023-04-19T16:19:07.695Z,2.38
2023-04-19T16:21:34.515Z,4.00
2023-04-19T16:24:01.353Z,3.10
2023-04-19T16:26:28.370Z,3.83
2023-04-19T16:28:55.368Z,2.83
2023-04-19T16:31:22.952Z,3.00
2023-04-19T16:33:49.985Z,2.83
2023-04-19T16:36:16.962Z,2.50
2023-04-19T16:38:44.018Z,2.53
2023-04-19T16:41:11.770Z,2.47
2023-04-19T16:43:38.701Z,2.30
2023-04-19T16:46:07.282Z,2.63
2023-04-19T16:48:34.399Z,2.15
2023-04-19T16:51:01.311Z,2.05
2023-04-19T16:53:28.275Z,2.28
2023-04-19T16:55:56.593Z,2.53
2023-04-19T16:58:23.777Z,3.13
2023-04-19T17:00:50.724Z,3.15
2023-04-19T17:03:17.733Z,3.25
2023-04-19T17:05:44.664Z,3.30
2023-04-19T17:08:12.121Z,2.83
2023-04-19T17:10:39.152Z,3.33
2023-04-19T17:13:06.145Z,2.70
2023-04-19T17:15:33.028Z,2.95
2023-04-19T17:17:59.948Z,4.00
2023-04-19T17:20:26.916Z,2.95
2023-04-19T17:22:53.749Z,3.45
2023-04-19T17:25:22.323Z,3.20
2023-04-19T17:27:49.773Z,4.28
2023-04-19T17:30:16.704Z,3.55
2023-04-19T17:32:43.737Z,3.33
2023-04-19T17:35:10.704Z,3.92
2023-04-19T17:37:37.633Z,3.78
2023-04-19T17:40:05.343Z,4.13
2023-04-19T17:42:32.382Z,4.28
2023-04-19T17:45:00.313Z,4.05
2023-04-19T17:47:27.530Z,5.10
2023-04-19T17:50:16.026Z,4.63
2023-04-19T17:52:43.106Z,4.57
2023-04-19T17:55:10.290Z,4.47
2023-04-19T17:57:37.223Z,3.58
2023-04-19T18:00:07.612Z,3.53
2023-04-19T18:02:34.931Z,4.47
2023-04-19T18:05:02.586Z,3.03
2023-04-19T18:07:29.860Z,3.38
2023-04-19T18:09:57.005Z,5.15
2023-04-19T18:12:23.970Z,3.80
2023-04-19T18:14:51.166Z,3.55
2023-04-19T18:17:18.057Z,3.53
2023-04-19T18:19:44.887Z,3.00
2023-04-19T18:22:11.890Z,4.47
2023-04-19T18:24:40.889Z,6.18
2023-04-19T18:27:07.839Z,4.28
2023-04-19T18:29:34.870Z,4.45
2023-04-19T18:32:01.801Z,4.57
2023-04-19T18:34:28.779Z,3.95
2023-04-19T18:37:00.963Z,4.55
2023-04-19T18:39:28.350Z,3.50
2023-04-19T18:41:57.701Z,3.95
2023-04-19T18:44:49.445Z,3.88
2023-04-19T18:47:12.651Z,3.95
2023-04-19T18:49:39.841Z,4.05
2023-04-19T18:52:07.162Z,3.63
2023-04-19T18:54:34.150Z,3.50
2023-04-19T18:59:31.468Z,3.88
2023-04-19T19:01:58.594Z,3.65
2023-04-19T19:04:48.188Z,3.50
2023-04-19T19:07:33.333Z,3.05
2023-04-19T19:10:02.484Z,3.92
2023-04-19T19:12:32.728Z,4.10
2023-04-19T19:14:59.653Z,4.30
2023-04-19T19:17:28.029Z,6.93
2023-04-19T19:19:55.146Z,5.53
2023-04-19T19:22:28.145Z,5.40
2023-04-19T19:24:55.725Z,6.80
2023-04-19T19:27:22.889Z,6.22
2023-04-19T19:29:49.953Z,4.05
2023-04-19T19:32:17.037Z,4.78
2023-04-19T19:34:54.812Z,3.90
2023-04-19T19:37:23.380Z,5.40
2023-04-19T19:39:51.948Z,4.05
2023-04-19T19:42:19.756Z,5.90
2023-04-19T19:44:46.724Z,5.03
2023-04-19T19:47:16.356Z,4.05
2023-04-19T19:50:05.849Z,4.15
2023-04-19T19:52:31.999Z,4.25
2023-04-19T19:55:00.926Z,3.85
2023-04-19T20:00:18.271Z,4.20
2023-04-19T20:02:54.834Z,4.65
2023-04-19T20:05:23.209Z,5.40
2023-04-19T20:08:00.443Z,6.07
2023-04-19T20:10:28.358Z,5.50
2023-04-19T20:12:57.239Z,6.60
2023-04-19T20:15:24.474Z,7.38
2023-04-19T20:17:51.466Z,5.60
2023-04-19T20:20:18.512Z,4.90
2023-04-19T20:22:45.584Z,3.65
2023-04-19T20:25:13.441Z,3.17
2023-04-19T20:27:40.677Z,3.30
2023-04-19T20:30:09.836Z,2.97
2023-04-19T20:32:36.848Z,2.85
2023-04-19T20:35:09.960Z,3.05
2023-04-19T20:37:39.648Z,3.17
2023-04-19T20:40:10.905Z,2.80
2023-04-19T20:42:38.166Z,2.65
2023-04-19T20:45:14.242Z,2.58
2023-04-19T20:47:41.300Z,3.70
2023-04-19T20:50:09.160Z,3.42
2023-04-19T20:52:36.120Z,3.08
2023-04-19T20:55:03.288Z,3.42
2023-04-19T20:57:30.264Z,3.42
2023-04-19T20:59:57.074Z,2.75
2023-04-19T21:02:24.082Z,2.30
2023-04-19T21:04:50.986Z,2.58
2023-04-19T21:07:17.880Z,2.45
2023-04-19T21:09:44.750Z,2.63
2023-04-19T21:12:11.614Z,2.40
2023-04-19T21:14:38.535Z,3.25
2023-04-19T21:17:05.435Z,5.68
2023-04-19T21:19:32.298Z,5.15
2023-04-19T21:21:59.561Z,7.40
2023-04-19T21:24:26.377Z,8.85
2023-04-19T21:26:53.321Z,6.07
2023-04-19T21:29:20.840Z,6.70
2023-04-19T21:31:48.031Z,5.88
2023-04-19T21:34:15.040Z,7.57
2023-04-19T21:36:42.044Z,7.20
2023-04-19T21:39:10.183Z,7.60
2023-04-19T21:41:38.205Z,8.48
2023-04-19T21:44:05.077Z,5.57
2023-04-19T21:46:32.205Z,4.72
2023-04-19T21:48:59.252Z,4.95
2023-04-19T21:51:26.333Z,4.47
2023-04-19T21:53:53.229Z,4.40
2023-04-19T21:56:20.094Z,4.53
2023-04-19T21:58:47.338Z,4.07
2023-04-19T22:01:14.246Z,4.13
2023-04-19T22:03:41.279Z,4.18
2023-04-19T22:06:08.518Z,4.97
2023-04-19T22:08:35.459Z,4.97
2023-04-19T22:11:02.749Z,3.67
2023-04-19T22:13:30.268Z,4.28
2023-04-19T22:15:57.274Z,4.53
2023-04-19T22:18:24.312Z,4.80
2023-04-19T22:20:52.145Z,4.63
2023-04-19T22:23:19.345Z,5.07
2023-04-19T22:25:46.273Z,4.65
2023-04-19T22:28:13.275Z,5.03
2023-04-19T22:30:40.228Z,5.95
2023-04-19T22:33:07.134Z,5.15
2023-04-19T22:35:34.022Z,5.63
2023-04-19T22:38:00.943Z,5.65
2023-04-19T22:40:27.880Z,6.88
2023-04-19T22:42:54.776Z,6.88
2023-04-19T22:45:21.619Z,5.57
2023-04-19T22:47:48.464Z,6.85
2023-04-19T22:50:15.484Z,6.32
2023-04-19T22:52:42.634Z,6.80
2023-04-19T22:55:10.964Z,8.77
2023-04-19T22:57:37.751Z,6.30
2023-04-19T23:00:05.435Z,8.70
2023-04-19T23:02:32.433Z,10.65
2023-04-19T23:05:00.643Z,12.32
2023-04-19T23:07:28.730Z,13.60
2023-04-19T23:09:56.180Z,11.38
2023-04-19T23:12:24.014Z,9.70
2023-04-19T23:14:51.153Z,9.13
2023-04-19T23:17:18.253Z,7.45
2023-04-19T23:19:45.232Z,7.10
2023-04-19T23:22:12.071Z,7.38
2023-04-19T23:24:38.907Z,7.28
2023-04-19T23:27:06.106Z,6.90
2023-04-19T23:29:33.012Z,7.13
2023-04-19T23:32:01.940Z,5.90
2023-04-19T23:34:28.990Z,6.15
2023-04-19T23:36:56.875Z,6.05
2023-04-19T23:39:23.716Z,5.45
2023-04-19T23:41:50.542Z,5.32
2023-04-19T23:44:17.345Z,5.95
2023-04-19T23:46:44.289Z,5.47
2023-04-19T23:49:11.188Z,5.47
2023-04-19T23:51:37.952Z,5.43
2023-04-19T23:54:05.219Z,5.32
2023-04-19T23:56:32.111Z,6.10
2023-04-19T23:58:58.890Z,5.38
